sensor_id;sensor_type;location;lat;lon;timestamp;P1;durP1;ratioP1;P2;durP2;ratioP2
45039;SDS011;30778;53.574;7.770;2023-07-29T00:01:44;4.00;;;2.75;;
45039;SDS011;30778;53.574;7.770;2023-07-29T00:04:11;5.10;;;3.53;;
45039;SDS011;30778;53.574;7.770;2023-07-29T00:06:36;3.83;;;2.80;;
45039;SDS011;30778;53.574;7.770;2023-07-29T00:09:02;6.45;;;3.08;;
45039;SDS011;30778;53.574;7.770;2023-07-29T00:11:28;5.45;;;3.03;;
45039;SDS011;30778;53.574;7.770;2023-07-29T00:13:54;7.47;;;4.15;;
45039;SDS011;30778;53.574;7.770;2023-07-29T00:16:19;8.35;;;4.38;;
45039;SDS011;30778;53.574;7.770;2023-07-29T00:18:47;5.53;;;3.08;;
45039;SDS011;30778;53.574;7.770;2023-07-29T00:21:13;7.85;;;3.67;;
45039;SDS011;30778;53.574;7.770;2023-07-29T00:23:39;5.78;;;3.55;;
45039;SDS011;30778;53.574;7.770;2023-07-29T00:26:05;5.85;;;4.18;;
45039;SDS011;30778;53.574;7.770;2023-07-29T00:28:30;5.88;;;3.28;;
45039;SDS011;30778;53.574;7.770;2023-07-29T00:30:56;9.27;;;5.47;;
45039;SDS011;30778;53.574;7.770;2023-07-29T00:33:21;10.88;;;4.45;;
45039;SDS011;30778;53.574;7.770;2023-07-29T00:35:47;6.05;;;4.53;;
45039;SDS011;30778;53.574;7.770;2023-07-29T00:38:12;8.05;;;3.60;;
45039;SDS011;30778;53.574;7.770;2023-07-29T00:40:38;7.25;;;4.15;;
45039;SDS011;30778;53.574;7.770;2023-07-29T00:43:03;5.85;;;4.15;;
45039;SDS011;30778;53.574;7.770;2023-07-29T00:45:32;8.95;;;4.35;;
45039;SDS011;30778;53.574;7.770;2023-07-29T00:47:59;7.28;;;4.28;;
45039;SDS011;30778;53.574;7.770;2023-07-29T00:50:25;10.35;;;4.65;;
45039;SDS011;30778;53.574;7.770;2023-07-29T00:52:53;6.95;;;4.63;;
45039;SDS011;30778;53.574;7.770;2023-07-29T00:55:22;9.32;;;5.30;;
45039;SDS011;30778;53.574;7.770;2023-07-29T00:57:48;8.23;;;4.95;;
45039;SDS011;30778;53.574;7.770;2023-07-29T01:00:16;11.55;;;4.88;;
45039;SDS011;30778;53.574;7.770;2023-07-29T01:02:44;6.88;;;4.05;;
45039;SDS011;30778;53.574;7.770;2023-07-29T01:05:12;9.40;;;4.65;;
45039;SDS011;30778;53.574;7.770;2023-07-29T01:15:43;7.57;;;4.22;;
45039;SDS011;30778;53.574;7.770;2023-07-29T01:18:16;6.85;;;4.47;;
45039;SDS011;30778;53.574;7.770;2023-07-29T01:20:46;8.05;;;5.00;;
45039;SDS011;30778;53.574;7.770;2023-07-29T01:23:13;8.40;;;4.95;;
45039;SDS011;30778;53.574;7.770;2023-07-29T01:25:40;5.57;;;4.13;;
45039;SDS011;30778;53.574;7.770;2023-07-29T01:28:06;6.97;;;3.90;;
45039;SDS011;30778;53.574;7.770;2023-07-29T01:30:33;5.82;;;3.47;;
45039;SDS011;30778;53.574;7.770;2023-07-29T01:33:07;7.90;;;4.47;;
45039;SDS011;30778;53.574;7.770;2023-07-29T01:35:44;7.28;;;4.80;;
45039;SDS011;30778;53.574;7.770;2023-07-29T01:40:50;8.05;;;5.13;;
45039;SDS011;30778;53.574;7.770;2023-07-29T01:43:16;8.85;;;4.10;;
45039;SDS011;30778;53.574;7.770;2023-07-29T01:45:44;7.78;;;4.82;;
45039;SDS011;30778;53.574;7.770;2023-07-29T01:48:09;9.73;;;3.95;;
45039;SDS011;30778;53.574;7.770;2023-07-29T01:50:35;8.38;;;5.25;;
45039;SDS011;30778;53.574;7.770;2023-07-29T01:53:00;8.63;;;4.90;;
45039;SDS011;30778;53.574;7.770;2023-07-29T01:55:26;8.52;;;4.65;;
45039;SDS011;30778;53.574;7.770;2023-07-29T01:57:53;10.45;;;5.75;;
45039;SDS011;30778;53.574;7.770;2023-07-29T02:00:19;9.02;;;4.97;;
45039;SDS011;30778;53.574;7.770;2023-07-29T02:02:45;7.10;;;5.22;;
45039;SDS011;30778;53.574;7.770;2023-07-29T02:05:10;5.38;;;4.30;;
45039;SDS011;30778;53.574;7.770;2023-07-29T02:07:36;8.07;;;5.65;;
45039;SDS011;30778;53.574;7.770;2023-07-29T02:10:01;13.35;;;5.75;;
45039;SDS011;30778;53.574;7.770;2023-07-29T02:12:27;11.40;;;6.28;;
45039;SDS011;30778;53.574;7.770;2023-07-29T02:14:53;9.52;;;5.90;;
45039;SDS011;30778;53.574;7.770;2023-07-29T02:17:18;12.45;;;7.80;;
45039;SDS011;30778;53.574;7.770;2023-07-29T02:19:44;14.90;;;8.68;;
45039;SDS011;30778;53.574;7.770;2023-07-29T02:22:10;12.23;;;6.18;;
45039;SDS011;30778;53.574;7.770;2023-07-29T02:24:38;11.48;;;6.95;;
45039;SDS011;30778;53.574;7.770;2023-07-29T02:27:03;11.23;;;7.93;;
45039;SDS011;30778;53.574;7.770;2023-07-29T02:29:29;11.30;;;7.47;;
45039;SDS011;30778;53.574;7.770;2023-07-29T02:31:55;12.27;;;6.30;;
45039;SDS011;30778;53.574;7.770;2023-07-29T02:34:21;11.05;;;6.38;;
45039;SDS011;30778;53.574;7.770;2023-07-29T02:36:47;12.20;;;8.50;;
45039;SDS011;30778;53.574;7.770;2023-07-29T02:39:12;10.20;;;6.45;;
45039;SDS011;30778;53.574;7.770;2023-07-29T02:41:38;14.82;;;7.93;;
45039;SDS011;30778;53.574;7.770;2023-07-29T02:44:04;13.70;;;7.78;;
45039;SDS011;30778;53.574;7.770;2023-07-29T02:46:30;8.35;;;5.93;;
45039;SDS011;30778;53.574;7.770;2023-07-29T02:48:56;13.95;;;8.35;;
45039;SDS011;30778;53.574;7.770;2023-07-29T02:51:22;12.00;;;7.53;;
45039;SDS011;30778;53.574;7.770;2023-07-29T02:53:47;11.77;;;7.60;;
45039;SDS011;30778;53.574;7.770;2023-07-29T02:56:12;11.90;;;7.78;;
45039;SDS011;30778;53.574;7.770;2023-07-29T02:58:38;13.25;;;8.52;;
45039;SDS011;30778;53.574;7.770;2023-07-29T03:01:06;12.60;;;8.93;;
45039;SDS011;30778;53.574;7.770;2023-07-29T03:03:32;11.13;;;6.72;;
45039;SDS011;30778;53.574;7.770;2023-07-29T03:06:01;11.98;;;7.95;;
45039;SDS011;30778;53.574;7.770;2023-07-29T03:08:27;13.00;;;8.52;;
45039;SDS011;30778;53.574;7.770;2023-07-29T03:10:53;12.65;;;7.88;;
45039;SDS011;30778;53.574;7.770;2023-07-29T03:13:19;12.13;;;8.20;;
45039;SDS011;30778;53.574;7.770;2023-07-29T03:15:45;13.40;;;8.00;;
45039;SDS011;30778;53.574;7.770;2023-07-29T03:18:11;12.98;;;8.85;;
45039;SDS011;30778;53.574;7.770;2023-07-29T03:20:36;11.13;;;7.82;;
45039;SDS011;30778;53.574;7.770;2023-07-29T03:23:02;12.90;;;8.00;;
45039;SDS011;30778;53.574;7.770;2023-07-29T03:25:28;12.25;;;7.32;;
45039;SDS011;30778;53.574;7.770;2023-07-29T03:27:54;15.23;;;8.60;;
45039;SDS011;30778;53.574;7.770;2023-07-29T03:30:20;14.65;;;8.02;;
45039;SDS011;30778;53.574;7.770;2023-07-29T03:32:47;13.80;;;8.00;;
45039;SDS011;30778;53.574;7.770;2023-07-29T03:35:14;9.85;;;6.75;;
45039;SDS011;30778;53.574;7.770;2023-07-29T03:37:40;10.68;;;6.55;;
45039;SDS011;30778;53.574;7.770;2023-07-29T03:40:06;12.88;;;8.02;;
45039;SDS011;30778;53.574;7.770;2023-07-29T03:42:32;14.43;;;8.45;;
45039;SDS011;30778;53.574;7.770;2023-07-29T03:44:58;12.43;;;7.60;;
45039;SDS011;30778;53.574;7.770;2023-07-29T03:47:23;8.32;;;6.40;;
45039;SDS011;30778;53.574;7.770;2023-07-29T03:49:50;14.95;;;8.50;;
45039;SDS011;30778;53.574;7.770;2023-07-29T03:52:19;11.07;;;7.32;;
45039;SDS011;30778;53.574;7.770;2023-07-29T03:54:44;8.25;;;6.55;;
45039;SDS011;30778;53.574;7.770;2023-07-29T03:57:10;11.05;;;7.32;;
45039;SDS011;30778;53.574;7.770;2023-07-29T03:59:35;10.82;;;7.72;;
45039;SDS011;30778;53.574;7.770;2023-07-29T04:02:04;9.93;;;6.93;;
45039;SDS011;30778;53.574;7.770;2023-07-29T04:04:29;7.80;;;6.30;;
45039;SDS011;30778;53.574;7.770;2023-07-29T04:06:55;16.52;;;8.00;;
45039;SDS011;30778;53.574;7.770;2023-07-29T04:09:21;8.65;;;6.32;;
45039;SDS011;30778;53.574;7.770;2023-07-29T04:11:46;9.90;;;6.65;;
45039;SDS011;30778;53.574;7.770;2023-07-29T04:14:12;11.60;;;8.05;;
45039;SDS011;30778;53.574;7.770;2023-07-29T04:16:38;9.23;;;6.68;;
45039;SDS011;30778;53.574;7.770;2023-07-29T04:19:03;9.13;;;7.35;;
45039;SDS011;30778;53.574;7.770;2023-07-29T04:21:29;11.48;;;7.10;;
45039;SDS011;30778;53.574;7.770;2023-07-29T04:23:54;7.25;;;5.90;;
45039;SDS011;30778;53.574;7.770;2023-07-29T04:26:20;10.48;;;6.75;;
45039;SDS011;30778;53.574;7.770;2023-07-29T04:28:47;16.40;;;6.65;;
45039;SDS011;30778;53.574;7.770;2023-07-29T04:31:13;13.18;;;7.68;;
45039;SDS011;30778;53.574;7.770;2023-07-29T04:33:38;13.10;;;7.80;;
45039;SDS011;30778;53.574;7.770;2023-07-29T04:36:04;9.95;;;6.93;;
45039;SDS011;30778;53.574;7.770;2023-07-29T04:38:30;8.23;;;6.25;;
45039;SDS011;30778;53.574;7.770;2023-07-29T04:40:58;10.25;;;7.38;;
45039;SDS011;30778;53.574;7.770;2023-07-29T04:43:27;13.35;;;7.60;;
45039;SDS011;30778;53.574;7.770;2023-07-29T04:45:56;9.88;;;6.65;;
45039;SDS011;30778;53.574;7.770;2023-07-29T04:48:22;12.50;;;7.32;;
45039;SDS011;30778;53.574;7.770;2023-07-29T04:50:47;12.88;;;8.57;;
45039;SDS011;30778;53.574;7.770;2023-07-29T04:53:13;9.48;;;6.65;;
45039;SDS011;30778;53.574;7.770;2023-07-29T04:55:40;10.38;;;6.68;;
45039;SDS011;30778;53.574;7.770;2023-07-29T04:58:07;13.65;;;7.93;;
45039;SDS011;30778;53.574;7.770;2023-07-29T05:00:32;8.75;;;6.65;;
45039;SDS011;30778;53.574;7.770;2023-07-29T05:02:58;11.60;;;7.22;;
45039;SDS011;30778;53.574;7.770;2023-07-29T05:05:24;11.27;;;6.68;;
45039;SDS011;30778;53.574;7.770;2023-07-29T05:07:50;11.18;;;6.82;;
45039;SDS011;30778;53.574;7.770;2023-07-29T05:10:15;11.35;;;7.90;;
45039;SDS011;30778;53.574;7.770;2023-07-29T05:12:40;8.85;;;6.35;;
45039;SDS011;30778;53.574;7.770;2023-07-29T05:15:06;9.90;;;7.05;;
45039;SDS011;30778;53.574;7.770;2023-07-29T05:17:32;11.38;;;7.20;;
45039;SDS011;30778;53.574;7.770;2023-07-29T05:19:58;10.85;;;6.57;;
45039;SDS011;30778;53.574;7.770;2023-07-29T05:22:23;9.48;;;6.78;;
45039;SDS011;30778;53.574;7.770;2023-07-29T05:24:50;9.95;;;7.20;;
45039;SDS011;30778;53.574;7.770;2023-07-29T05:27:15;8.52;;;7.10;;
45039;SDS011;30778;53.574;7.770;2023-07-29T05:29:41;11.10;;;6.82;;
45039;SDS011;30778;53.574;7.770;2023-07-29T05:32:07;11.50;;;6.90;;
45039;SDS011;30778;53.574;7.770;2023-07-29T05:34:32;8.55;;;6.15;;
45039;SDS011;30778;53.574;7.770;2023-07-29T05:36:58;10.18;;;6.80;;
45039;SDS011;30778;53.574;7.770;2023-07-29T05:39:23;9.77;;;7.07;;
45039;SDS011;30778;53.574;7.770;2023-07-29T05:41:49;13.10;;;6.55;;
45039;SDS011;30778;53.574;7.770;2023-07-29T05:44:15;8.45;;;6.40;;
45039;SDS011;30778;53.574;7.770;2023-07-29T05:46:40;8.77;;;5.40;;
45039;SDS011;30778;53.574;7.770;2023-07-29T05:49:06;10.48;;;6.45;;
45039;SDS011;30778;53.574;7.770;2023-07-29T05:51:31;8.75;;;6.05;;
45039;SDS011;30778;53.574;7.770;2023-07-29T05:53:57;8.80;;;6.28;;
45039;SDS011;30778;53.574;7.770;2023-07-29T05:56:22;7.05;;;5.20;;
45039;SDS011;30778;53.574;7.770;2023-07-29T05:58:50;8.35;;;6.13;;
45039;SDS011;30778;53.574;7.770;2023-07-29T06:01:16;9.05;;;6.53;;
45039;SDS011;30778;53.574;7.770;2023-07-29T06:03:42;8.35;;;5.80;;
45039;SDS011;30778;53.574;7.770;2023-07-29T06:06:08;10.57;;;6.80;;
45039;SDS011;30778;53.574;7.770;2023-07-29T06:08:33;11.10;;;6.38;;
45039;SDS011;30778;53.574;7.770;2023-07-29T06:11:01;10.65;;;7.00;;
45039;SDS011;30778;53.574;7.770;2023-07-29T06:13:26;9.27;;;6.88;;
45039;SDS011;30778;53.574;7.770;2023-07-29T06:15:53;8.75;;;6.53;;
45039;SDS011;30778;53.574;7.770;2023-07-29T06:18:18;10.30;;;7.68;;
45039;SDS011;30778;53.574;7.770;2023-07-29T06:20:44;10.07;;;7.32;;
45039;SDS011;30778;53.574;7.770;2023-07-29T06:23:10;10.25;;;6.53;;
45039;SDS011;30778;53.574;7.770;2023-07-29T06:25:38;8.10;;;6.03;;
45039;SDS011;30778;53.574;7.770;2023-07-29T06:28:03;10.07;;;6.85;;
45039;SDS011;30778;53.574;7.770;2023-07-29T06:30:29;9.82;;;6.32;;
45039;SDS011;30778;53.574;7.770;2023-07-29T06:32:55;9.75;;;6.20;;
45039;SDS011;30778;53.574;7.770;2023-07-29T06:35:21;7.80;;;5.50;;
45039;SDS011;30778;53.574;7.770;2023-07-29T06:37:46;9.05;;;5.55;;
45039;SDS011;30778;53.574;7.770;2023-07-29T06:40:12;10.50;;;5.97;;
45039;SDS011;30778;53.574;7.770;2023-07-29T06:42:37;7.43;;;4.45;;
45039;SDS011;30778;53.574;7.770;2023-07-29T06:45:03;6.28;;;4.38;;
45039;SDS011;30778;53.574;7.770;2023-07-29T06:47:32;9.35;;;5.10;;
45039;SDS011;30778;53.574;7.770;2023-07-29T06:49:58;8.18;;;4.28;;
45039;SDS011;30778;53.574;7.770;2023-07-29T06:52:23;7.57;;;3.67;;
45039;SDS011;30778;53.574;7.770;2023-07-29T06:54:49;10.68;;;4.63;;
45039;SDS011;30778;53.574;7.770;2023-07-29T06:57:14;6.90;;;3.95;;
45039;SDS011;30778;53.574;7.770;2023-07-29T06:59:40;6.80;;;4.07;;
45039;SDS011;30778;53.574;7.770;2023-07-29T07:02:06;4.88;;;3.88;;
45039;SDS011;30778;53.574;7.770;2023-07-29T07:04:32;10.02;;;4.40;;
45039;SDS011;30778;53.574;7.770;2023-07-29T07:06:57;7.50;;;2.90;;
45039;SDS011;30778;53.574;7.770;2023-07-29T07:09:23;5.97;;;3.80;;
45039;SDS011;30778;53.574;7.770;2023-07-29T07:11:48;9.20;;;4.15;;
45039;SDS011;30778;53.574;7.770;2023-07-29T07:14:14;5.30;;;3.35;;
45039;SDS011;30778;53.574;7.770;2023-07-29T07:16:39;6.55;;;3.40;;
45039;SDS011;30778;53.574;7.770;2023-07-29T07:19:05;5.60;;;2.47;;
45039;SDS011;30778;53.574;7.770;2023-07-29T07:21:31;6.85;;;2.25;;
45039;SDS011;30778;53.574;7.770;2023-07-29T07:23:57;6.28;;;2.35;;
45039;SDS011;30778;53.574;7.770;2023-07-29T07:26:23;3.67;;;2.08;;
45039;SDS011;30778;53.574;7.770;2023-07-29T07:28:49;3.47;;;1.67;;
45039;SDS011;30778;53.574;7.770;2023-07-29T07:31:14;5.63;;;2.80;;
45039;SDS011;30778;53.574;7.770;2023-07-29T07:33:41;4.90;;;2.08;;
45039;SDS011;30778;53.574;7.770;2023-07-29T07:36:06;4.75;;;1.98;;
45039;SDS011;30778;53.574;7.770;2023-07-29T07:38:32;2.90;;;1.90;;
45039;SDS011;30778;53.574;7.770;2023-07-29T07:40:58;3.60;;;1.70;;
45039;SDS011;30778;53.574;7.770;2023-07-29T07:43:23;4.07;;;2.72;;
45039;SDS011;30778;53.574;7.770;2023-07-29T07:45:49;4.50;;;2.25;;
45039;SDS011;30778;53.574;7.770;2023-07-29T07:48:15;6.07;;;2.17;;
45039;SDS011;30778;53.574;7.770;2023-07-29T07:50:42;3.17;;;2.10;;
45039;SDS011;30778;53.574;7.770;2023-07-29T07:53:08;6.05;;;2.17;;
45039;SDS011;30778;53.574;7.770;2023-07-29T07:55:34;9.02;;;3.13;;
45039;SDS011;30778;53.574;7.770;2023-07-29T07:57:59;5.30;;;2.10;;
45039;SDS011;30778;53.574;7.770;2023-07-29T08:00:25;4.63;;;2.67;;
45039;SDS011;30778;53.574;7.770;2023-07-29T08:02:50;4.72;;;1.45;;
45039;SDS011;30778;53.574;7.770;2023-07-29T08:05:16;5.90;;;1.45;;
45039;SDS011;30778;53.574;7.770;2023-07-29T08:07:41;3.33;;;1.27;;
45039;SDS011;30778;53.574;7.770;2023-07-29T08:10:10;6.93;;;2.20;;
45039;SDS011;30778;53.574;7.770;2023-07-29T08:12:35;2.88;;;1.77;;
45039;SDS011;30778;53.574;7.770;2023-07-29T08:15:01;2.60;;;1.98;;
45039;SDS011;30778;53.574;7.770;2023-07-29T08:17:28;4.88;;;2.00;;
45039;SDS011;30778;53.574;7.770;2023-07-29T08:19:53;2.35;;;1.73;;
45039;SDS011;30778;53.574;7.770;2023-07-29T08:22:19;3.20;;;1.60;;
45039;SDS011;30778;53.574;7.770;2023-07-29T08:24:46;5.15;;;1.67;;
45039;SDS011;30778;53.574;7.770;2023-07-29T08:27:11;3.80;;;1.73;;
45039;SDS011;30778;53.574;7.770;2023-07-29T08:29:36;3.45;;;1.52;;
45039;SDS011;30778;53.574;7.770;2023-07-29T08:32:02;5.90;;;1.55;;
45039;SDS011;30778;53.574;7.770;2023-07-29T08:34:28;4.80;;;1.08;;
45039;SDS011;30778;53.574;7.770;2023-07-29T08:36:53;2.75;;;1.20;;
45039;SDS011;30778;53.574;7.770;2023-07-29T08:39:19;2.70;;;1.30;;
45039;SDS011;30778;53.574;7.770;2023-07-29T08:41:53;1.70;;;1.00;;
45039;SDS011;30778;53.574;7.770;2023-07-29T08:44:26;2.72;;;0.95;;
45039;SDS011;30778;53.574;7.770;2023-07-29T08:47:00;4.32;;;1.05;;
45039;SDS011;30778;53.574;7.770;2023-07-29T08:49:26;2.60;;;0.90;;
45039;SDS011;30778;53.574;7.770;2023-07-29T08:51:53;2.65;;;1.00;;
45039;SDS011;30778;53.574;7.770;2023-07-29T08:54:19;3.92;;;0.77;;
45039;SDS011;30778;53.574;7.770;2023-07-29T08:56:44;4.88;;;1.13;;
45039;SDS011;30778;53.574;7.770;2023-07-29T08:59:11;4.13;;;0.90;;
45039;SDS011;30778;53.574;7.770;2023-07-29T09:01:40;4.53;;;0.75;;
45039;SDS011;30778;53.574;7.770;2023-07-29T09:04:06;5.93;;;1.40;;
45039;SDS011;30778;53.574;7.770;2023-07-29T09:06:32;3.22;;;0.70;;
45039;SDS011;30778;53.574;7.770;2023-07-29T09:09:00;2.05;;;0.73;;
45039;SDS011;30778;53.574;7.770;2023-07-29T09:11:26;2.85;;;1.08;;
45039;SDS011;30778;53.574;7.770;2023-07-29T09:13:53;4.70;;;0.82;;
45039;SDS011;30778;53.574;7.770;2023-07-29T09:16:18;4.95;;;1.25;;
45039;SDS011;30778;53.574;7.770;2023-07-29T09:18:47;3.08;;;0.80;;
45039;SDS011;30778;53.574;7.770;2023-07-29T09:21:15;4.85;;;0.75;;
45039;SDS011;30778;53.574;7.770;2023-07-29T09:23:44;1.92;;;0.50;;
45039;SDS011;30778;53.574;7.770;2023-07-29T09:26:10;2.40;;;0.90;;
45039;SDS011;30778;53.574;7.770;2023-07-29T09:28:36;3.90;;;1.02;;
45039;SDS011;30778;53.574;7.770;2023-07-29T09:31:03;9.30;;;0.70;;
45039;SDS011;30778;53.574;7.770;2023-07-29T09:33:30;3.00;;;0.47;;
45039;SDS011;30778;53.574;7.770;2023-07-29T09:36:00;3.97;;;0.67;;
45039;SDS011;30778;53.574;7.770;2023-07-29T09:38:26;2.25;;;0.40;;
45039;SDS011;30778;53.574;7.770;2023-07-29T09:40:54;1.30;;;0.57;;
45039;SDS011;30778;53.574;7.770;2023-07-29T09:43:21;5.15;;;1.00;;
45039;SDS011;30778;53.574;7.770;2023-07-29T09:45:51;2.53;;;0.50;;
45039;SDS011;30778;53.574;7.770;2023-07-29T09:48:19;1.52;;;0.75;;
45039;SDS011;30778;53.574;7.770;2023-07-29T09:50:47;1.88;;;0.65;;
45039;SDS011;30778;53.574;7.770;2023-07-29T09:53:13;1.33;;;0.52;;
45039;SDS011;30778;53.574;7.770;2023-07-29T09:55:39;4.55;;;0.70;;
45039;SDS011;30778;53.574;7.770;2023-07-29T09:58:10;2.13;;;0.80;;
45039;SDS011;30778;53.574;7.770;2023-07-29T10:00:36;1.10;;;0.73;;
45039;SDS011;30778;53.574;7.770;2023-07-29T10:03:04;2.10;;;1.10;;
45039;SDS011;30778;53.574;7.770;2023-07-29T10:05:31;2.10;;;0.50;;
45039;SDS011;30778;53.574;7.770;2023-07-29T10:07:59;1.80;;;0.50;;
45039;SDS011;30778;53.574;7.770;2023-07-29T10:10:27;2.20;;;0.98;;
45039;SDS011;30778;53.574;7.770;2023-07-29T10:12:53;2.90;;;0.80;;
45039;SDS011;30778;53.574;7.770;2023-07-29T10:15:20;1.17;;;0.60;;
45039;SDS011;30778;53.574;7.770;2023-07-29T10:17:46;1.83;;;0.65;;
45039;SDS011;30778;53.574;7.770;2023-07-29T10:20:11;2.28;;;0.60;;
45039;SDS011;30778;53.574;7.770;2023-07-29T10:22:38;1.40;;;0.65;;
45039;SDS011;30778;53.574;7.770;2023-07-29T10:25:06;2.42;;;0.80;;
45039;SDS011;30778;53.574;7.770;2023-07-29T10:27:35;1.50;;;0.70;;
45039;SDS011;30778;53.574;7.770;2023-07-29T10:30:08;5.95;;;0.95;;
45039;SDS011;30778;53.574;7.770;2023-07-29T10:32:36;1.55;;;0.68;;
45039;SDS011;30778;53.574;7.770;2023-07-29T10:35:03;1.33;;;0.70;;
45039;SDS011;30778;53.574;7.770;2023-07-29T10:37:29;2.45;;;0.70;;
45039;SDS011;30778;53.574;7.770;2023-07-29T10:39:55;8.93;;;0.73;;
45039;SDS011;30778;53.574;7.770;2023-07-29T10:42:21;2.65;;;1.20;;
45039;SDS011;30778;53.574;7.770;2023-07-29T10:44:47;3.03;;;1.00;;
45039;SDS011;30778;53.574;7.770;2023-07-29T10:47:18;2.75;;;1.30;;
45039;SDS011;30778;53.574;7.770;2023-07-29T10:49:46;2.90;;;1.08;;
45039;SDS011;30778;53.574;7.770;2023-07-29T10:52:13;1.90;;;0.70;;
45039;SDS011;30778;53.574;7.770;2023-07-29T10:54:52;5.28;;;1.20;;
45039;SDS011;30778;53.574;7.770;2023-07-29T10:57:30;1.85;;;0.93;;
45039;SDS011;30778;53.574;7.770;2023-07-29T10:59:58;2.58;;;0.60;;
45039;SDS011;30778;53.574;7.770;2023-07-29T11:05:06;2.95;;;0.90;;
45039;SDS011;30778;53.574;7.770;2023-07-29T11:07:54;4.53;;;0.80;;
45039;SDS011;30778;53.574;7.770;2023-07-29T11:10:18;1.25;;;0.68;;
45039;SDS011;30778;53.574;7.770;2023-07-29T11:12:51;2.05;;;0.80;;
45039;SDS011;30778;53.574;7.770;2023-07-29T11:15:20;3.55;;;1.38;;
45039;SDS011;30778;53.574;7.770;2023-07-29T11:17:48;1.75;;;0.60;;
45039;SDS011;30778;53.574;7.770;2023-07-29T11:20:24;3.97;;;0.70;;
45039;SDS011;30778;53.574;7.770;2023-07-29T11:22:55;3.95;;;0.85;;
45039;SDS011;30778;53.574;7.770;2023-07-29T11:25:23;3.22;;;0.68;;
45039;SDS011;30778;53.574;7.770;2023-07-29T11:27:50;2.88;;;0.70;;
45039;SDS011;30778;53.574;7.770;2023-07-29T11:30:17;3.08;;;1.35;;
45039;SDS011;30778;53.574;7.770;2023-07-29T11:32:44;3.38;;;1.02;;
45039;SDS011;30778;53.574;7.770;2023-07-29T11:35:15;3.55;;;0.90;;
45039;SDS011;30778;53.574;7.770;2023-07-29T11:37:44;6.82;;;1.08;;
45039;SDS011;30778;53.574;7.770;2023-07-29T11:42:42;2.90;;;0.90;;
45039;SDS011;30778;53.574;7.770;2023-07-29T11:45:08;2.35;;;0.60;;
45039;SDS011;30778;53.574;7.770;2023-07-29T11:47:35;7.45;;;0.82;;
45039;SDS011;30778;53.574;7.770;2023-07-29T11:50:02;3.35;;;0.43;;
45039;SDS011;30778;53.574;7.770;2023-07-29T11:52:29;2.00;;;0.90;;
45039;SDS011;30778;53.574;7.770;2023-07-29T11:54:57;3.67;;;0.65;;
45039;SDS011;30778;53.574;7.770;2023-07-29T11:57:23;2.95;;;0.57;;
45039;SDS011;30778;53.574;7.770;2023-07-29T11:59:49;2.97;;;0.50;;
45039;SDS011;30778;53.574;7.770;2023-07-29T12:02:18;1.70;;;0.30;;
45039;SDS011;30778;53.574;7.770;2023-07-29T12:04:46;2.43;;;0.63;;
45039;SDS011;30778;53.574;7.770;2023-07-29T12:07:13;1.88;;;0.20;;
45039;SDS011;30778;53.574;7.770;2023-07-29T12:09:39;3.65;;;0.52;;
45039;SDS011;30778;53.574;7.770;2023-07-29T12:12:06;1.40;;;0.25;;
45039;SDS011;30778;53.574;7.770;2023-07-29T12:14:32;2.53;;;0.50;;
45039;SDS011;30778;53.574;7.770;2023-07-29T12:17:02;1.85;;;0.68;;
45039;SDS011;30778;53.574;7.770;2023-07-29T12:19:33;1.80;;;0.30;;
45039;SDS011;30778;53.574;7.770;2023-07-29T12:22:04;2.55;;;0.68;;
45039;SDS011;30778;53.574;7.770;2023-07-29T12:26:57;2.78;;;0.57;;
45039;SDS011;30778;53.574;7.770;2023-07-29T12:29:23;2.22;;;0.30;;
45039;SDS011;30778;53.574;7.770;2023-07-29T12:31:49;1.00;;;0.30;;
45039;SDS011;30778;53.574;7.770;2023-07-29T12:34:24;0.80;;;0.20;;
45039;SDS011;30778;53.574;7.770;2023-07-29T12:36:51;1.25;;;0.30;;
45039;SDS011;30778;53.574;7.770;2023-07-29T12:39:17;1.17;;;0.45;;
45039;SDS011;30778;53.574;7.770;2023-07-29T12:41:47;1.05;;;0.38;;
45039;SDS011;30778;53.574;7.770;2023-07-29T12:44:14;3.78;;;0.50;;
45039;SDS011;30778;53.574;7.770;2023-07-29T12:46:40;2.33;;;0.30;;
45039;SDS011;30778;53.574;7.770;2023-07-29T12:49:05;0.90;;;0.20;;
45039;SDS011;30778;53.574;7.770;2023-07-29T12:51:31;4.03;;;0.22;;
45039;SDS011;30778;53.574;7.770;2023-07-29T12:53:57;1.00;;;0.20;;
45039;SDS011;30778;53.574;7.770;2023-07-29T12:56:22;1.85;;;0.20;;
45039;SDS011;30778;53.574;7.770;2023-07-29T12:58:48;1.02;;;0.50;;
45039;SDS011;30778;53.574;7.770;2023-07-29T13:01:14;5.88;;;0.30;;
45039;SDS011;30778;53.574;7.770;2023-07-29T13:03:43;2.10;;;0.15;;
45039;SDS011;30778;53.574;7.770;2023-07-29T13:06:09;1.00;;;0.22;;
45039;SDS011;30778;53.574;7.770;2023-07-29T13:08:35;0.68;;;0.20;;
45039;SDS011;30778;53.574;7.770;2023-07-29T13:11:00;4.90;;;0.50;;
45039;SDS011;30778;53.574;7.770;2023-07-29T13:13:25;10.63;;;0.65;;
45039;SDS011;30778;53.574;7.770;2023-07-29T13:15:51;4.32;;;0.93;;
45039;SDS011;30778;53.574;7.770;2023-07-29T13:18:17;1.48;;;0.30;;
45039;SDS011;30778;53.574;7.770;2023-07-29T13:20:43;5.05;;;0.65;;
45039;SDS011;30778;53.574;7.770;2023-07-29T13:23:08;2.08;;;0.40;;
45039;SDS011;30778;53.574;7.770;2023-07-29T13:25:34;1.45;;;0.40;;
45039;SDS011;30778;53.574;7.770;2023-07-29T13:27:59;0.63;;;0.20;;
45039;SDS011;30778;53.574;7.770;2023-07-29T13:30:24;0.70;;;0.20;;
45039;SDS011;30778;53.574;7.770;2023-07-29T13:32:50;0.60;;;0.10;;
45039;SDS011;30778;53.574;7.770;2023-07-29T13:35:15;0.70;;;0.10;;
45039;SDS011;30778;53.574;7.770;2023-07-29T13:37:41;5.18;;;0.10;;
45039;SDS011;30778;53.574;7.770;2023-07-29T13:40:06;0.60;;;0.10;;
45039;SDS011;30778;53.574;7.770;2023-07-29T13:42:32;0.55;;;0.13;;
45039;SDS011;30778;53.574;7.770;2023-07-29T13:44:58;2.97;;;0.28;;
45039;SDS011;30778;53.574;7.770;2023-07-29T13:47:23;2.55;;;0.30;;
45039;SDS011;30778;53.574;7.770;2023-07-29T13:49:49;1.02;;;0.20;;
45039;SDS011;30778;53.574;7.770;2023-07-29T13:52:18;2.47;;;0.40;;
45039;SDS011;30778;53.574;7.770;2023-07-29T13:54:44;4.63;;;0.40;;
45039;SDS011;30778;53.574;7.770;2023-07-29T13:57:11;0.90;;;0.40;;
45039;SDS011;30778;53.574;7.770;2023-07-29T13:59:37;5.55;;;0.88;;
45039;SDS011;30778;53.574;7.770;2023-07-29T14:02:05;3.45;;;0.93;;
45039;SDS011;30778;53.574;7.770;2023-07-29T14:04:34;3.92;;;0.30;;
45039;SDS011;30778;53.574;7.770;2023-07-29T14:07:00;4.80;;;0.30;;
45039;SDS011;30778;53.574;7.770;2023-07-29T14:09:25;2.88;;;0.47;;
45039;SDS011;30778;53.574;7.770;2023-07-29T14:11:51;5.10;;;1.02;;
45039;SDS011;30778;53.574;7.770;2023-07-29T14:14:16;4.68;;;0.60;;
45039;SDS011;30778;53.574;7.770;2023-07-29T14:16:42;3.42;;;1.55;;
45039;SDS011;30778;53.574;7.770;2023-07-29T14:19:10;4.50;;;0.30;;
45039;SDS011;30778;53.574;7.770;2023-07-29T14:21:35;2.65;;;0.30;;
45039;SDS011;30778;53.574;7.770;2023-07-29T14:24:01;3.30;;;0.88;;
45039;SDS011;30778;53.574;7.770;2023-07-29T14:26:26;2.92;;;0.30;;
45039;SDS011;30778;53.574;7.770;2023-07-29T14:28:51;4.00;;;0.75;;
45039;SDS011;30778;53.574;7.770;2023-07-29T14:31:17;2.20;;;0.40;;
45039;SDS011;30778;53.574;7.770;2023-07-29T14:33:43;4.72;;;0.85;;
45039;SDS011;30778;53.574;7.770;2023-07-29T14:36:09;4.55;;;0.50;;
45039;SDS011;30778;53.574;7.770;2023-07-29T14:38:35;3.58;;;0.43;;
45039;SDS011;30778;53.574;7.770;2023-07-29T14:41:02;3.78;;;0.65;;
45039;SDS011;30778;53.574;7.770;2023-07-29T14:43:28;3.58;;;1.20;;
45039;SDS011;30778;53.574;7.770;2023-07-29T14:45:53;3.63;;;0.60;;
45039;SDS011;30778;53.574;7.770;2023-07-29T14:48:22;3.08;;;0.68;;
45039;SDS011;30778;53.574;7.770;2023-07-29T14:50:48;4.93;;;0.63;;
45039;SDS011;30778;53.574;7.770;2023-07-29T14:53:13;0.95;;;0.20;;
45039;SDS011;30778;53.574;7.770;2023-07-29T14:55:39;3.30;;;0.40;;
45039;SDS011;30778;53.574;7.770;2023-07-29T14:58:07;1.23;;;0.20;;
45039;SDS011;30778;53.574;7.770;2023-07-29T15:00:33;0.73;;;0.30;;